sensor_id;sensor_type;location;lat;lon;timestamp;pressure;altitude;pressure_sealevel;temperature;humidity
73600;BME280;61877;48.246;9.220;2023-03-14T00:01:49;92801.53;;;7.94;100.00
73600;BME280;61877;48.246;9.220;2023-03-14T00:04:15;92805.31;;;7.93;100.00
73600;BME280;61877;48.246;9.220;2023-03-14T00:06:40;92803.44;;;7.94;99.16
73600;BME280;61877;48.246;9.220;2023-03-14T00:09:06;92801.13;;;7.92;99.74
73600;BME280;61877;48.246;9.220;2023-03-14T00:11:32;92786.19;;;7.91;99.64
73600;BME280;61877;48.246;9.220;2023-03-14T00:13:57;92760.22;;;7.88;99.87
73600;BME280;61877;48.246;9.220;2023-03-14T00:16:23;92740.00;;;7.87;100.00
73600;BME280;61877;48.246;9.220;2023-03-14T00:18:50;92701.00;;;7.82;100.00
73600;BME280;61877;48.246;9.220;2023-03-14T00:21:16;92710.19;;;7.85;100.00
73600;BME280;61877;48.246;9.220;2023-03-14T00:23:44;92705.56;;;7.82;100.00
73600;BME280;61877;48.246;9.220;2023-03-14T00:26:11;92672.25;;;7.76;100.00
73600;BME280;61877;48.246;9.220;2023-03-14T00:28:37;92664.22;;;7.72;98.87
73600;BME280;61877;48.246;9.220;2023-03-14T00:31:03;92662.56;;;7.68;98.01
73600;BME280;61877;48.246;9.220;2023-03-14T00:33:28;92656.13;;;7.69;97.72
73600;BME280;61877;48.246;9.220;2023-03-14T00:35:56;92655.34;;;7.68;98.66
73600;BME280;61877;48.246;9.220;2023-03-14T00:38:22;92652.19;;;7.63;99.16
73600;BME280;61877;48.246;9.220;2023-03-14T00:40:47;92651.00;;;7.60;98.68
73600;BME280;61877;48.246;9.220;2023-03-14T00:43:14;92666.94;;;7.57;99.08
73600;BME280;61877;48.246;9.220;2023-03-14T00:45:39;92669.63;;;7.57;99.28
73600;BME280;61877;48.246;9.220;2023-03-14T00:48:05;92674.94;;;7.57;99.44
73600;BME280;61877;48.246;9.220;2023-03-14T00:50:32;92692.78;;;7.53;98.79
73600;BME280;61877;48.246;9.220;2023-03-14T00:52:59;92688.16;;;7.50;98.97
73600;BME280;61877;48.246;9.220;2023-03-14T00:55:25;92693.91;;;7.52;99.51
73600;BME280;61877;48.246;9.220;2023-03-14T00:57:54;92697.28;;;7.49;99.87
73600;BME280;61877;48.246;9.220;2023-03-14T01:00:20;92683.53;;;7.47;99.60
73600;BME280;61877;48.246;9.220;2023-03-14T01:02:46;92689.56;;;7.44;98.64
73600;BME280;61877;48.246;9.220;2023-03-14T01:05:11;92676.31;;;7.47;99.82
73600;BME280;61877;48.246;9.220;2023-03-14T01:07:37;92669.75;;;7.45;99.72
73600;BME280;61877;48.246;9.220;2023-03-14T01:10:05;92668.66;;;7.46;100.00
73600;BME280;61877;48.246;9.220;2023-03-14T01:12:31;92653.75;;;7.45;99.31
73600;BME280;61877;48.246;9.220;2023-03-14T01:14:57;92645.31;;;7.43;99.83
73600;BME280;61877;48.246;9.220;2023-03-14T01:17:25;92652.22;;;7.44;100.00
73600;BME280;61877;48.246;9.220;2023-03-14T01:19:51;92650.38;;;7.48;98.05
73600;BME280;61877;48.246;9.220;2023-03-14T01:22:16;92642.38;;;7.48;98.31
73600;BME280;61877;48.246;9.220;2023-03-14T01:24:42;92634.72;;;7.46;98.70
73600;BME280;61877;48.246;9.220;2023-03-14T01:27:08;92624.03;;;7.46;99.01
73600;BME280;61877;48.246;9.220;2023-03-14T01:29:37;92626.78;;;7.50;98.08
73600;BME280;61877;48.246;9.220;2023-03-14T01:32:02;92631.41;;;7.53;99.56
73600;BME280;61877;48.246;9.220;2023-03-14T01:34:28;92641.69;;;7.51;99.28
73600;BME280;61877;48.246;9.220;2023-03-14T01:36:53;92627.50;;;7.47;98.53
73600;BME280;61877;48.246;9.220;2023-03-14T01:39:19;92631.06;;;7.54;98.59
73600;BME280;61877;48.246;9.220;2023-03-14T01:41:44;92622.31;;;7.54;97.83
73600;BME280;61877;48.246;9.220;2023-03-14T01:44:11;92623.81;;;7.55;97.41
73600;BME280;61877;48.246;9.220;2023-03-14T01:46:38;92627.63;;;7.54;98.21
73600;BME280;61877;48.246;9.220;2023-03-14T01:49:09;92614.28;;;7.54;99.55
73600;BME280;61877;48.246;9.220;2023-03-14T01:51:41;92609.66;;;7.51;99.37
73600;BME280;61877;48.246;9.220;2023-03-14T01:54:14;92611.91;;;7.49;99.17
73600;BME280;61877;48.246;9.220;2023-03-14T01:56:43;92612.06;;;7.56;99.02
73600;BME280;61877;48.246;9.220;2023-03-14T01:59:11;92596.03;;;7.56;98.78
73600;BME280;61877;48.246;9.220;2023-03-14T02:01:38;92581.06;;;7.51;99.22
73600;BME280;61877;48.246;9.220;2023-03-14T02:04:07;92591.00;;;7.51;98.65
73600;BME280;61877;48.246;9.220;2023-03-14T02:06:39;92570.31;;;7.48;98.67
73600;BME280;61877;48.246;9.220;2023-03-14T02:09:06;92572.59;;;7.46;98.43
73600;BME280;61877;48.246;9.220;2023-03-14T02:11:32;92560.31;;;7.41;98.99
73600;BME280;61877;48.246;9.220;2023-03-14T02:13:59;92563.69;;;7.38;99.13
73600;BME280;61877;48.246;9.220;2023-03-14T02:16:26;92562.44;;;7.32;99.70
73600;BME280;61877;48.246;9.220;2023-03-14T02:18:52;92554.09;;;7.34;99.30
73600;BME280;61877;48.246;9.220;2023-03-14T02:21:22;92544.13;;;7.31;99.18
73600;BME280;61877;48.246;9.220;2023-03-14T02:23:53;92536.22;;;7.38;97.58
73600;BME280;61877;48.246;9.220;2023-03-14T02:26:23;92548.41;;;7.35;98.97
73600;BME280;61877;48.246;9.220;2023-03-14T02:28:54;92550.28;;;7.35;98.19
73600;BME280;61877;48.246;9.220;2023-03-14T02:31:19;92549.63;;;7.41;97.83
73600;BME280;61877;48.246;9.220;2023-03-14T02:33:45;92540.88;;;7.41;98.52
73600;BME280;61877;48.246;9.220;2023-03-14T02:36:13;92537.84;;;7.42;97.07
73600;BME280;61877;48.246;9.220;2023-03-14T02:38:43;92535.41;;;7.34;98.32
73600;BME280;61877;48.246;9.220;2023-03-14T02:41:11;92530.72;;;7.27;98.77
73600;BME280;61877;48.246;9.220;2023-03-14T02:43:36;92516.25;;;7.28;98.69
73600;BME280;61877;48.246;9.220;2023-03-14T02:46:05;92514.66;;;7.24;99.22
73600;BME280;61877;48.246;9.220;2023-03-14T02:48:33;92518.56;;;7.30;96.92
73600;BME280;61877;48.246;9.220;2023-03-14T02:51:01;92529.94;;;7.27;98.41
73600;BME280;61877;48.246;9.220;2023-03-14T02:53:29;92513.81;;;7.20;99.09
73600;BME280;61877;48.246;9.220;2023-03-14T02:56:04;92519.22;;;7.23;97.84
73600;BME280;61877;48.246;9.220;2023-03-14T02:58:33;92513.53;;;7.25;97.36
73600;BME280;61877;48.246;9.220;2023-03-14T03:00:58;92519.91;;;7.20;98.07
73600;BME280;61877;48.246;9.220;2023-03-14T03:03:25;92509.97;;;7.17;97.55
73600;BME280;61877;48.246;9.220;2023-03-14T03:05:52;92508.72;;;7.34;94.97
73600;BME280;61877;48.246;9.220;2023-03-14T03:08:18;92504.53;;;7.33;95.58
73600;BME280;61877;48.246;9.220;2023-03-14T03:10:47;92507.88;;;7.30;94.95
73600;BME280;61877;48.246;9.220;2023-03-14T03:13:13;92505.72;;;7.35;94.79
73600;BME280;61877;48.246;9.220;2023-03-14T03:15:38;92510.34;;;7.38;95.07
73600;BME280;61877;48.246;9.220;2023-03-14T03:18:27;92500.03;;;7.37;94.34
73600;BME280;61877;48.246;9.220;2023-03-14T03:20:52;92493.53;;;7.38;94.57
73600;BME280;61877;48.246;9.220;2023-03-14T03:23:18;92497.28;;;7.33;95.69
73600;BME280;61877;48.246;9.220;2023-03-14T03:25:48;92485.03;;;7.29;96.06
73600;BME280;61877;48.246;9.220;2023-03-14T03:28:13;92481.16;;;7.26;95.76
73600;BME280;61877;48.246;9.220;2023-03-14T03:30:40;92485.44;;;7.31;95.96
73600;BME280;61877;48.246;9.220;2023-03-14T03:33:06;92472.03;;;7.27;96.13
73600;BME280;61877;48.246;9.220;2023-03-14T03:35:32;92479.28;;;7.27;96.66
73600;BME280;61877;48.246;9.220;2023-03-14T03:37:58;92484.91;;;7.22;97.16
73600;BME280;61877;48.246;9.220;2023-03-14T03:40:23;92484.06;;;7.18;97.31
73600;BME280;61877;48.246;9.220;2023-03-14T03:42:49;92479.84;;;7.17;97.04
73600;BME280;61877;48.246;9.220;2023-03-14T03:45:17;92484.38;;;7.13;96.68
73600;BME280;61877;48.246;9.220;2023-03-14T03:47:43;92474.38;;;7.10;96.91
73600;BME280;61877;48.246;9.220;2023-03-14T03:50:09;92475.53;;;7.09;97.50
73600;BME280;61877;48.246;9.220;2023-03-14T03:52:36;92478.06;;;7.02;96.85
73600;BME280;61877;48.246;9.220;2023-03-14T03:55:05;92487.63;;;7.03;97.64
73600;BME280;61877;48.246;9.220;2023-03-14T03:57:31;92487.03;;;7.13;94.57
73600;BME280;61877;48.246;9.220;2023-03-14T03:59:56;92489.56;;;7.06;96.07
73600;BME280;61877;48.246;9.220;2023-03-14T04:02:22;92481.84;;;7.01;95.87
73600;BME280;61877;48.246;9.220;2023-03-14T04:04:47;92485.97;;;6.98;96.68
73600;BME280;61877;48.246;9.220;2023-03-14T04:07:12;92482.16;;;6.96;94.76
73600;BME280;61877;48.246;9.220;2023-03-14T04:09:39;92478.84;;;7.02;95.42
73600;BME280;61877;48.246;9.220;2023-03-14T04:12:05;92469.34;;;7.05;93.58
73600;BME280;61877;48.246;9.220;2023-03-14T04:14:30;92473.16;;;7.04;93.26
73600;BME280;61877;48.246;9.220;2023-03-14T04:16:56;92470.78;;;6.99;93.84
73600;BME280;61877;48.246;9.220;2023-03-14T04:19:22;92471.00;;;6.90;94.13
73600;BME280;61877;48.246;9.220;2023-03-14T04:21:48;92474.00;;;6.89;95.74
73600;BME280;61877;48.246;9.220;2023-03-14T04:24:13;92474.66;;;6.82;93.80
73600;BME280;61877;48.246;9.220;2023-03-14T04:26:40;92459.88;;;6.85;93.26
73600;BME280;61877;48.246;9.220;2023-03-14T04:29:06;92451.38;;;6.79;93.92
73600;BME280;61877;48.246;9.220;2023-03-14T04:31:31;92455.09;;;6.75;94.69
73600;BME280;61877;48.246;9.220;2023-03-14T04:33:57;92439.06;;;6.71;94.79
73600;BME280;61877;48.246;9.220;2023-03-14T04:36:22;92438.91;;;6.64;96.00
73600;BME280;61877;48.246;9.220;2023-03-14T04:38:48;92438.97;;;6.68;94.18
73600;BME280;61877;48.246;9.220;2023-03-14T04:41:13;92436.03;;;6.53;95.60
73600;BME280;61877;48.246;9.220;2023-03-14T04:43:40;92421.13;;;6.49;95.05
73600;BME280;61877;48.246;9.220;2023-03-14T04:46:06;92421.53;;;6.51;96.05
73600;BME280;61877;48.246;9.220;2023-03-14T04:48:31;92408.84;;;6.44;96.35
73600;BME280;61877;48.246;9.220;2023-03-14T04:50:57;92416.84;;;6.44;95.96
73600;BME280;61877;48.246;9.220;2023-03-14T04:53:22;92413.25;;;6.37;96.83
73600;BME280;61877;48.246;9.220;2023-03-14T04:55:49;92409.72;;;6.29;97.19
73600;BME280;61877;48.246;9.220;2023-03-14T04:58:14;92409.91;;;6.21;97.33
73600;BME280;61877;48.246;9.220;2023-03-14T05:00:41;92406.41;;;6.17;97.74
73600;BME280;61877;48.246;9.220;2023-03-14T05:03:06;92402.06;;;6.28;96.25
73600;BME280;61877;48.246;9.220;2023-03-14T05:05:32;92399.75;;;6.26;97.05
73600;BME280;61877;48.246;9.220;2023-03-14T05:07:57;92383.34;;;6.24;95.98
73600;BME280;61877;48.246;9.220;2023-03-14T05:10:23;92387.56;;;6.25;96.31
73600;BME280;61877;48.246;9.220;2023-03-14T05:12:49;92379.44;;;6.18;96.39
73600;BME280;61877;48.246;9.220;2023-03-14T05:15:14;92383.91;;;6.14;97.46
73600;BME280;61877;48.246;9.220;2023-03-14T05:17:41;92377.09;;;6.17;96.80
73600;BME280;61877;48.246;9.220;2023-03-14T05:20:09;92365.22;;;6.11;96.85
73600;BME280;61877;48.246;9.220;2023-03-14T05:22:35;92367.03;;;6.07;97.04
73600;BME280;61877;48.246;9.220;2023-03-14T05:25:00;92370.53;;;6.11;96.78
73600;BME280;61877;48.246;9.220;2023-03-14T05:27:26;92362.41;;;6.04;97.53
73600;BME280;61877;48.246;9.220;2023-03-14T05:29:54;92367.38;;;6.05;97.19
73600;BME280;61877;48.246;9.220;2023-03-14T05:32:19;92358.44;;;6.13;96.00
73600;BME280;61877;48.246;9.220;2023-03-14T05:34:46;92352.25;;;6.09;96.62
73600;BME280;61877;48.246;9.220;2023-03-14T05:37:12;92357.88;;;6.04;96.50
73600;BME280;61877;48.246;9.220;2023-03-14T05:39:37;92340.22;;;5.96;97.50
73600;BME280;61877;48.246;9.220;2023-03-14T05:42:09;92343.16;;;5.91;97.52
73600;BME280;61877;48.246;9.220;2023-03-14T05:44:34;92330.06;;;5.83;98.06
73600;BME280;61877;48.246;9.220;2023-03-14T05:47:00;92327.03;;;5.84;98.23
73600;BME280;61877;48.246;9.220;2023-03-14T05:49:25;92320.09;;;5.80;98.21
73600;BME280;61877;48.246;9.220;2023-03-14T05:51:52;92319.22;;;5.76;97.95
73600;BME280;61877;48.246;9.220;2023-03-14T05:54:18;92322.09;;;5.67;98.95
73600;BME280;61877;48.246;9.220;2023-03-14T05:56:47;92324.63;;;5.60;99.01
73600;BME280;61877;48.246;9.220;2023-03-14T05:59:12;92333.28;;;5.57;99.63
73600;BME280;61877;48.246;9.220;2023-03-14T06:01:44;92343.38;;;5.67;99.20
73600;BME280;61877;48.246;9.220;2023-03-14T06:04:12;92341.22;;;5.73;99.40
73600;BME280;61877;48.246;9.220;2023-03-14T06:06:37;92336.06;;;5.80;99.42
73600;BME280;61877;48.246;9.220;2023-03-14T06:09:09;92323.81;;;5.75;99.45
73600;BME280;61877;48.246;9.220;2023-03-14T06:11:40;92329.56;;;5.96;99.04
73600;BME280;61877;48.246;9.220;2023-03-14T06:14:12;92315.69;;;5.87;98.19
73600;BME280;61877;48.246;9.220;2023-03-14T06:16:37;92321.00;;;5.87;97.79
73600;BME280;61877;48.246;9.220;2023-03-14T06:19:03;92326.25;;;5.84;98.23
73600;BME280;61877;48.246;9.220;2023-03-14T06:21:28;92314.63;;;5.73;98.15
73600;BME280;61877;48.246;9.220;2023-03-14T06:23:54;92318.47;;;5.75;97.36
73600;BME280;61877;48.246;9.220;2023-03-14T06:26:21;92307.69;;;5.68;97.90
73600;BME280;61877;48.246;9.220;2023-03-14T06:28:46;92300.81;;;5.67;98.48
73600;BME280;61877;48.246;9.220;2023-03-14T06:31:15;92308.41;;;5.65;98.18
73600;BME280;61877;48.246;9.220;2023-03-14T06:33:41;92313.56;;;5.58;98.61
73600;BME280;61877;48.246;9.220;2023-03-14T06:36:07;92316.22;;;5.58;98.67
73600;BME280;61877;48.246;9.220;2023-03-14T06:38:33;92318.97;;;5.62;97.75
73600;BME280;61877;48.246;9.220;2023-03-14T06:41:03;92324.56;;;5.57;98.40
73600;BME280;61877;48.246;9.220;2023-03-14T06:43:30;92310.56;;;5.60;98.58
73600;BME280;61877;48.246;9.220;2023-03-14T06:45:55;92312.16;;;5.64;97.93
73600;BME280;61877;48.246;9.220;2023-03-14T06:48:24;92303.63;;;5.55;98.39
73600;BME280;61877;48.246;9.220;2023-03-14T06:50:50;92302.06;;;5.54;98.75
73600;BME280;61877;48.246;9.220;2023-03-14T06:53:15;92308.44;;;5.50;98.66
73600;BME280;61877;48.246;9.220;2023-03-14T06:55:41;92302.28;;;5.46;99.11
73600;BME280;61877;48.246;9.220;2023-03-14T06:58:06;92302.69;;;5.48;99.56
73600;BME280;61877;48.246;9.220;2023-03-14T07:00:43;92311.97;;;5.54;98.64
73600;BME280;61877;48.246;9.220;2023-03-14T07:03:13;92314.00;;;5.60;98.38
73600;BME280;61877;48.246;9.220;2023-03-14T07:05:42;92312.16;;;5.64;98.09
73600;BME280;61877;48.246;9.220;2023-03-14T07:08:08;92315.66;;;5.68;98.37
73600;BME280;61877;48.246;9.220;2023-03-14T07:10:36;92322.16;;;5.71;98.22
73600;BME280;61877;48.246;9.220;2023-03-14T07:13:11;92332.88;;;5.74;98.64
73600;BME280;61877;48.246;9.220;2023-03-14T07:18:39;92333.75;;;5.78;97.41
73600;BME280;61877;48.246;9.220;2023-03-14T07:21:10;92334.75;;;5.89;95.40
73600;BME280;61877;48.246;9.220;2023-03-14T07:23:40;92328.72;;;5.92;95.85
73600;BME280;61877;48.246;9.220;2023-03-14T07:26:08;92334.91;;;5.96;95.98
73600;BME280;61877;48.246;9.220;2023-03-14T07:28:37;92336.56;;;6.04;96.44
73600;BME280;61877;48.246;9.220;2023-03-14T07:31:24;92335.44;;;6.24;95.28
73600;BME280;61877;48.246;9.220;2023-03-14T07:34:05;92345.50;;;6.34;94.05
73600;BME280;61877;48.246;9.220;2023-03-14T07:36:31;92352.72;;;6.53;94.85
73600;BME280;61877;48.246;9.220;2023-03-14T07:38:57;92359.84;;;6.72;95.58
73600;BME280;61877;48.246;9.220;2023-03-14T07:41:28;92354.13;;;6.92;91.83
73600;BME280;61877;48.246;9.220;2023-03-14T07:43:53;92355.97;;;7.11;92.12
73600;BME280;61877;48.246;9.220;2023-03-14T07:46:19;92353.84;;;7.23;88.76
73600;BME280;61877;48.246;9.220;2023-03-14T07:48:46;92360.03;;;7.53;90.28
73600;BME280;61877;48.246;9.220;2023-03-14T07:51:12;92363.34;;;7.73;87.94
73600;BME280;61877;48.246;9.220;2023-03-14T07:53:40;92357.38;;;7.83;84.89
73600;BME280;61877;48.246;9.220;2023-03-14T07:56:09;92361.69;;;7.91;86.26
73600;BME280;61877;48.246;9.220;2023-03-14T07:58:57;92361.00;;;7.98;86.03
73600;BME280;61877;48.246;9.220;2023-03-14T08:01:27;92356.03;;;7.96;86.89
73600;BME280;61877;48.246;9.220;2023-03-14T08:03:57;92353.44;;;8.03;85.83
73600;BME280;61877;48.246;9.220;2023-03-14T08:06:22;92351.91;;;8.02;83.50
73600;BME280;61877;48.246;9.220;2023-03-14T08:08:51;92348.63;;;8.12;85.46
73600;BME280;61877;48.246;9.220;2023-03-14T08:11:19;92354.44;;;8.21;86.12
73600;BME280;61877;48.246;9.220;2023-03-14T08:13:45;92353.03;;;8.31;85.77
73600;BME280;61877;48.246;9.220;2023-03-14T08:16:10;92355.91;;;8.48;85.86
73600;BME280;61877;48.246;9.220;2023-03-14T08:18:36;92364.06;;;8.62;83.82
73600;BME280;61877;48.246;9.220;2023-03-14T08:21:03;92354.34;;;8.80;81.82
73600;BME280;61877;48.246;9.220;2023-03-14T08:23:45;92365.16;;;8.94;82.21
73600;BME280;61877;48.246;9.220;2023-03-14T08:26:10;92360.72;;;9.09;82.48
73600;BME280;61877;48.246;9.220;2023-03-14T08:28:36;92360.88;;;9.27;80.23
73600;BME280;61877;48.246;9.220;2023-03-14T08:31:02;92371.38;;;9.53;80.88
73600;BME280;61877;48.246;9.220;2023-03-14T08:33:29;92369.47;;;9.57;76.39
73600;BME280;61877;48.246;9.220;2023-03-14T08:35:56;92377.72;;;9.31;77.15
73600;BME280;61877;48.246;9.220;2023-03-14T08:38:29;92384.66;;;9.35;79.80
73600;BME280;61877;48.246;9.220;2023-03-14T08:40:56;92382.09;;;9.53;76.57
73600;BME280;61877;48.246;9.220;2023-03-14T08:43:22;92383.50;;;9.94;74.16
73600;BME280;61877;48.246;9.220;2023-03-14T08:46:01;92378.84;;;9.84;75.33
73600;BME280;61877;48.246;9.220;2023-03-14T08:48:27;92388.50;;;9.95;73.52
73600;BME280;61877;48.246;9.220;2023-03-14T08:50:53;92392.50;;;9.61;73.59
73600;BME280;61877;48.246;9.220;2023-03-14T08:53:28;92381.97;;;9.39;74.93
73600;BME280;61877;48.246;9.220;2023-03-14T08:55:53;92383.78;;;9.24;74.84
73600;BME280;61877;48.246;9.220;2023-03-14T08:58:19;92379.44;;;9.56;76.15
73600;BME280;61877;48.246;9.220;2023-03-14T09:00:44;92383.09;;;9.85;73.02
73600;BME280;61877;48.246;9.220;2023-03-14T09:03:16;92387.84;;;10.09;73.42
73600;BME280;61877;48.246;9.220;2023-03-14T09:05:42;92384.34;;;10.01;73.80
73600;BME280;61877;48.246;9.220;2023-03-14T09:08:07;92387.41;;;10.07;75.55
73600;BME280;61877;48.246;9.220;2023-03-14T09:10:34;92397.41;;;10.10;75.81
73600;BME280;61877;48.246;9.220;2023-03-14T09:13:21;92399.16;;;9.88;72.84
73600;BME280;61877;48.246;9.220;2023-03-14T09:15:53;92401.84;;;9.88;75.72
73600;BME280;61877;48.246;9.220;2023-03-14T09:18:30;92407.66;;;9.97;76.05
73600;BME280;61877;48.246;9.220;2023-03-14T09:20:59;92415.22;;;9.88;73.86
73600;BME280;61877;48.246;9.220;2023-03-14T09:23:25;92413.78;;;9.98;75.77
73600;BME280;61877;48.246;9.220;2023-03-14T09:25:55;92415.34;;;10.06;72.58
73600;BME280;61877;48.246;9.220;2023-03-14T09:31:26;92419.50;;;9.93;72.40
73600;BME280;61877;48.246;9.220;2023-03-14T09:33:51;92420.88;;;9.73;71.76
73600;BME280;61877;48.246;9.220;2023-03-14T09:36:18;92419.69;;;9.70;73.83
73600;BME280;61877;48.246;9.220;2023-03-14T09:39:15;92421.72;;;9.87;73.08
73600;BME280;61877;48.246;9.220;2023-03-14T09:41:47;92428.13;;;10.26;71.94
73600;BME280;61877;48.246;9.220;2023-03-14T09:44:27;92424.94;;;10.82;69.62
73600;BME280;61877;48.246;9.220;2023-03-14T09:49:54;92426.88;;;10.92;68.97
73600;BME280;61877;48.246;9.220;2023-03-14T09:52:26;92420.78;;;11.06;68.85
73600;BME280;61877;48.246;9.220;2023-03-14T09:54:58;92419.13;;;10.70;70.56
73600;BME280;61877;48.246;9.220;2023-03-14T09:57:57;92424.97;;;10.89;69.71
73600;BME280;61877;48.246;9.220;2023-03-14T10:00:27;92421.59;;;11.27;70.50
73600;BME280;61877;48.246;9.220;2023-03-14T10:03:20;92411.63;;;11.38;70.18
73600;BME280;61877;48.246;9.220;2023-03-14T10:11:57;92420.34;;;10.79;70.65
73600;BME280;61877;48.246;9.220;2023-03-14T10:14:35;92424.72;;;10.36;71.12
73600;BME280;61877;48.246;9.220;2023-03-14T10:17:07;92423.16;;;10.28;73.54
73600;BME280;61877;48.246;9.220;2023-03-14T10:19:52;92424.31;;;10.27;72.27
73600;BME280;61877;48.246;9.220;2023-03-14T10:22:17;92422.09;;;10.47;74.65
73600;BME280;61877;48.246;9.220;2023-03-14T10:24:56;92418.19;;;10.30;70.63
73600;BME280;61877;48.246;9.220;2023-03-14T10:27:33;92426.78;;;10.64;73.54
73600;BME280;61877;48.246;9.220;2023-03-14T10:30:01;92412.09;;;10.37;72.60
73600;BME280;61877;48.246;9.220;2023-03-14T10:32:37;92418.28;;;10.48;71.08
73600;BME280;61877;48.246;9.220;2023-03-14T10:35:28;92419.03;;;10.45;70.38
73600;BME280;61877;48.246;9.220;2023-03-14T10:38:05;92412.97;;;10.59;68.89
73600;BME280;61877;48.246;9.220;2023-03-14T10:40:32;92416.88;;;10.82;70.24
73600;BME280;61877;48.246;9.220;2023-03-14T10:42:59;92409.50;;;10.58;68.68
73600;BME280;61877;48.246;9.220;2023-03-14T10:45:43;92416.03;;;10.61;70.24
73600;BME280;61877;48.246;9.220;2023-03-14T10:48:21;92421.69;;;10.41;68.99
73600;BME280;61877;48.246;9.220;2023-03-14T10:50:55;92424.72;;;10.36;68.72
73600;BME280;61877;48.246;9.220;2023-03-14T10:53:21;92423.34;;;10.67;67.99
73600;BME280;61877;48.246;9.220;2023-03-14T10:55:47;92430.59;;;10.56;69.87
73600;BME280;61877;48.246;9.220;2023-03-14T10:58:23;92420.59;;;10.57;71.80
73600;BME280;61877;48.246;9.220;2023-03-14T11:00:57;92436.22;;;10.37;71.85
73600;BME280;61877;48.246;9.220;2023-03-14T11:03:24;92445.00;;;10.30;72.99
73600;BME280;61877;48.246;9.220;2023-03-14T11:06:57;92445.81;;;9.84;74.26
73600;BME280;61877;48.246;9.220;2023-03-14T11:09:39;92454.53;;;9.74;76.31
73600;BME280;61877;48.246;9.220;2023-03-14T11:12:19;92460.81;;;9.45;77.71
73600;BME280;61877;48.246;9.220;2023-03-14T11:15:05;92463.25;;;9.24;79.98
73600;BME280;61877;48.246;9.220;2023-03-14T11:20:45;92472.03;;;9.21;82.21
73600;BME280;61877;48.246;9.220;2023-03-14T11:23:20;92472.09;;;9.28;83.99
73600;BME280;61877;48.246;9.220;2023-03-14T11:25:54;92474.03;;;9.31;83.13
73600;BME280;61877;48.246;9.220;2023-03-14T11:31:27;92489.38;;;9.37;84.95
73600;BME280;61877;48.246;9.220;2023-03-14T11:33:56;92487.28;;;9.17;81.56
73600;BME280;61877;48.246;9.220;2023-03-14T11:36:29;92494.03;;;9.03;83.22
73600;BME280;61877;48.246;9.220;2023-03-14T11:38:58;92485.69;;;9.08;83.60
73600;BME280;61877;48.246;9.220;2023-03-14T11:41:26;92481.38;;;9.00;84.53
73600;BME280;61877;48.246;9.220;2023-03-14T11:43:55;92496.69;;;8.70;84.63
73600;BME280;61877;48.246;9.220;2023-03-14T11:46:28;92500.38;;;8.59;84.17
73600;BME280;61877;48.246;9.220;2023-03-14T11:49:00;92526.25;;;8.25;85.49
73600;BME280;61877;48.246;9.220;2023-03-14T11:51:29;92519.63;;;7.93;82.73
73600;BME280;61877;48.246;9.220;2023-03-14T11:54:00;92518.59;;;8.01;84.46
73600;BME280;61877;48.246;9.220;2023-03-14T11:56:31;92511.59;;;7.93;82.47
73600;BME280;61877;48.246;9.220;2023-03-14T11:59:01;92518.22;;;8.03;82.02
73600;BME280;61877;48.246;9.220;2023-03-14T12:01:36;92510.28;;;8.29;83.63
73600;BME280;61877;48.246;9.220;2023-03-14T12:04:09;92510.03;;;8.67;83.60
73600;BME280;61877;48.246;9.220;2023-03-14T12:06:41;92507.78;;;8.72;83.54
73600;BME280;61877;48.246;9.220;2023-03-14T12:09:12;92510.19;;;8.81;84.58
73600;BME280;61877;48.246;9.220;2023-03-14T12:11:40;92506.66;;;8.73;83.29
73600;BME280;61877;48.246;9.220;2023-03-14T12:14:20;92518.44;;;8.98;84.63
73600;BME280;61877;48.246;9.220;2023-03-14T12:16:49;92530.66;;;8.70;82.54
73600;BME280;61877;48.246;9.220;2023-03-14T12:19:35;92534.25;;;8.51;82.29
73600;BME280;61877;48.246;9.220;2023-03-14T12:22:08;92535.31;;;8.21;84.38
73600;BME280;61877;48.246;9.220;2023-03-14T12:24:38;92530.66;;;8.40;87.43
73600;BME280;61877;48.246;9.220;2023-03-14T12:27:12;92536.94;;;8.25;82.97
73600;BME280;61877;48.246;9.220;2023-03-14T12:30:00;92539.00;;;8.13;86.04
73600;BME280;61877;48.246;9.220;2023-03-14T12:32:27;92532.16;;;8.15;85.59
73600;BME280;61877;48.246;9.220;2023-03-14T12:34:52;92535.78;;;8.26;86.40
73600;BME280;61877;48.246;9.220;2023-03-14T12:37:25;92538.94;;;8.32;85.19
73600;BME280;61877;48.246;9.220;2023-03-14T12:40:11;92543.06;;;8.29;85.37
73600;BME280;61877;48.246;9.220;2023-03-14T12:42:45;92553.75;;;8.29;84.56
73600;BME280;61877;48.246;9.220;2023-03-14T12:45:26;92564.88;;;8.31;86.76
73600;BME280;61877;48.246;9.220;2023-03-14T12:48:17;92561.69;;;8.48;84.23
73600;BME280;61877;48.246;9.220;2023-03-14T12:50:46;92593.59;;;8.38;84.89
73600;BME280;61877;48.246;9.220;2023-03-14T12:56:24;92654.69;;;7.94;87.82
73600;BME280;61877;48.246;9.220;2023-03-14T12:58:58;92670.19;;;7.28;83.97
73600;BME280;61877;48.246;9.220;2023-03-14T13:01:27;92674.53;;;6.47;83.06
73600;BME280;61877;48.246;9.220;2023-03-14T13:03:55;92674.09;;;6.45;85.16
73600;BME280;61877;48.246;9.220;2023-03-14T13:06:51;92687.75;;;6.28;83.91
73600;BME280;61877;48.246;9.220;2023-03-14T13:09:48;92691.91;;;6.41;84.47
73600;BME280;61877;48.246;9.220;2023-03-14T13:12:17;92697.47;;;6.36;85.23
73600;BME280;61877;48.246;9.220;2023-03-14T13:14:45;92702.44;;;6.22;83.61
73600;BME280;61877;48.246;9.220;2023-03-14T13:17:13;92716.09;;;6.05;86.47
73600;BME280;61877;48.246;9.220;2023-03-14T13:19:41;92729.47;;;5.93;84.42
73600;BME280;61877;48.246;9.220;2023-03-14T13:22:16;92741.91;;;5.89;85.37
73600;BME280;61877;48.246;9.220;2023-03-14T13:24:42;92751.53;;;5.94;85.33
73600;BME280;61877;48.246;9.220;2023-03-14T13:27:16;92749.03;;;5.85;85.37
73600;BME280;61877;48.246;9.220;2023-03-14T13:29:42;92764.44;;;5.92;85.02
73600;BME280;61877;48.246;9.220;2023-03-14T13:32:17;92793.16;;;5.86;84.42
73600;BME280;61877;48.246;9.220;2023-03-14T13:34:45;92792.47;;;5.77;84.15
73600;BME280;61877;48.246;9.220;2023-03-14T13:37:16;92795.59;;;5.79;84.49
73600;BME280;61877;48.246;9.220;2023-03-14T13:39:41;92806.22;;;5.91;85.77
73600;BME280;61877;48.246;9.220;2023-03-14T13:42:14;92805.44;;;6.18;82.85
73600;BME280;61877;48.246;9.220;2023-03-14T13:44:40;92819.66;;;7.00;76.72
73600;BME280;61877;48.246;9.220;2023-03-14T13:47:11;92818.34;;;7.41;71.79